John Wayne Airport-Orange County Airport
KSNA : now visible

Airfield :











YOU CAN JOIN US ON...

 
LOGIN :

Register | Disclaimer

   EN    FR    IT 

 









Legend :    VFR   Marginal VFR   IFR   Intensive IFR   Very Intensive IFR
Visi :
Ceiling :
>= 8 km
>= 3000ft
5 to 8 km
1000 to 3000 ft
1500m to 5 km
500 to 1000 ft
800 to 1500m
200 to 500 ft
< 800m
< 200 ft
Symbols :   Thunderstorms  Fog  Heavy snow  Heavy precipitations  Wind > 20 kt






- Airport Elevation : 56 ft
- IATA code : SNA


KSNA - John Wayne -Orange County

CURRENT METAR :
  • 101253Z 05004KT 10SM OVC055 12/09 A2997 RMK AO2 SLP149 T01220094

EXPIRED METARs :
  • 101153Z AUTO 04005KT 10SM FEW025 BKN048 OVC060 13/09 A2999 RMK AO2 RAE52 SLP155 P0010 60037 70103 T01280094 10133 20122 58011
  • 101053Z AUTO 02006KT 6SM -RA OVC035 13/09 A3000 RMK AO2 SLP160 P0009 T01280094
  • 101025Z AUTO 02003KT 5SM -RA SCT030 OVC035 13/09 A3001 RMK AO2 P0004 T01280094

TAF KSNA
Valid from the 10 at 12:00 until the 11 at 12:00 UTC


101126Z 1012/1112 07008KT P6SM -RA SCT025 OVC035
TEMPO 1012/1015 4SM RA BR BKN025
FM101500 VRB06KT P6SM -SHRA SCT025 OVC035
TEMPO 1015/1019 5SM -SHRA BR BKN020
FM101900 22011KT P6SM VCSH SCT025 OVC035
FM110200 VRB05KT P6SM VCSH SCT025 BKN035
FM110400 VRB04KT P6SM SCT025 SCT035



MET'MAP, your aeronautical weather chart ! - Copyright ORBIFLY December 2007 - Disclaimer

ORBIFLY MET'MAP TEAM :

Programming & Development : Alexandra Zaïnal
Concept & original design : Baudouin d'Aumeries
Assistance for programming : Marc-Olivier Méhu
Technical & hardware support : Manuel Goepfert

Contact : metmap@orbifly.com




SOURCES & CREDITS :

   NOAA       Earth
Advisory